sensor_id;sensor_type;location;lat;lon;timestamp;P1;durP1;ratioP1;P2;durP2;ratioP2
29422;SDS011;16399;51.686;8.684;2022-08-20T00:02:49;21.60;;;13.40;;
29422;SDS011;16399;51.686;8.684;2022-08-20T00:09:12;23.38;;;14.13;;
29422;SDS011;16399;51.686;8.684;2022-08-20T00:12:15;20.95;;;14.58;;
29422;SDS011;16399;51.686;8.684;2022-08-20T00:15:19;23.45;;;14.90;;
29422;SDS011;16399;51.686;8.684;2022-08-20T00:18:23;19.27;;;14.18;;
29422;SDS011;16399;51.686;8.684;2022-08-20T00:21:26;24.23;;;14.38;;
29422;SDS011;16399;51.686;8.684;2022-08-20T00:24:29;21.07;;;14.38;;
29422;SDS011;16399;51.686;8.684;2022-08-20T00:27:32;21.95;;;15.00;;
29422;SDS011;16399;51.686;8.684;2022-08-20T00:30:35;20.90;;;14.18;;
29422;SDS011;16399;51.686;8.684;2022-08-20T00:33:39;20.52;;;14.35;;
29422;SDS011;16399;51.686;8.684;2022-08-20T00:36:41;25.08;;;14.33;;
29422;SDS011;16399;51.686;8.684;2022-08-20T00:39:43;24.35;;;15.35;;
29422;SDS011;16399;51.686;8.684;2022-08-20T00:42:47;24.20;;;13.62;;
29422;SDS011;16399;51.686;8.684;2022-08-20T00:45:52;19.50;;;13.75;;
29422;SDS011;16399;51.686;8.684;2022-08-20T00:48:56;20.68;;;13.45;;
29422;SDS011;16399;51.686;8.684;2022-08-20T00:52:01;22.25;;;13.95;;
29422;SDS011;16399;51.686;8.684;2022-08-20T00:55:08;21.40;;;14.53;;
29422;SDS011;16399;51.686;8.684;2022-08-20T00:58:11;20.43;;;13.50;;
29422;SDS011;16399;51.686;8.684;2022-08-20T01:01:14;18.82;;;13.25;;
29422;SDS011;16399;51.686;8.684;2022-08-20T01:04:17;20.43;;;12.73;;
29422;SDS011;16399;51.686;8.684;2022-08-20T01:07:21;18.23;;;12.68;;
29422;SDS011;16399;51.686;8.684;2022-08-20T01:10:34;19.87;;;12.90;;
29422;SDS011;16399;51.686;8.684;2022-08-20T01:13:39;17.17;;;10.93;;
29422;SDS011;16399;51.686;8.684;2022-08-20T01:16:43;17.90;;;11.43;;
29422;SDS011;16399;51.686;8.684;2022-08-20T01:19:56;16.20;;;10.60;;
29422;SDS011;16399;51.686;8.684;2022-08-20T01:23:02;18.80;;;10.85;;
29422;SDS011;16399;51.686;8.684;2022-08-20T01:26:24;18.75;;;11.18;;
29422;SDS011;16399;51.686;8.684;2022-08-20T01:29:28;14.98;;;10.08;;
29422;SDS011;16399;51.686;8.684;2022-08-20T01:32:33;15.20;;;10.45;;
29422;SDS011;16399;51.686;8.684;2022-08-20T01:35:36;13.78;;;9.68;;
29422;SDS011;16399;51.686;8.684;2022-08-20T01:38:40;16.27;;;11.03;;
29422;SDS011;16399;51.686;8.684;2022-08-20T01:45:08;14.80;;;9.20;;
29422;SDS011;16399;51.686;8.684;2022-08-20T01:48:11;15.00;;;9.78;;
29422;SDS011;16399;51.686;8.684;2022-08-20T01:54:18;13.05;;;8.68;;
29422;SDS011;16399;51.686;8.684;2022-08-20T01:57:22;13.37;;;8.53;;
29422;SDS011;16399;51.686;8.684;2022-08-20T02:00:29;12.00;;;8.03;;
29422;SDS011;16399;51.686;8.684;2022-08-20T02:03:32;14.65;;;8.60;;
29422;SDS011;16399;51.686;8.684;2022-08-20T02:06:36;12.47;;;8.38;;
29422;SDS011;16399;51.686;8.684;2022-08-20T02:09:40;15.32;;;9.83;;
29422;SDS011;16399;51.686;8.684;2022-08-20T02:12:43;14.50;;;8.95;;
29422;SDS011;16399;51.686;8.684;2022-08-20T02:15:45;13.43;;;8.60;;
29422;SDS011;16399;51.686;8.684;2022-08-20T02:18:49;13.22;;;8.88;;
29422;SDS011;16399;51.686;8.684;2022-08-20T02:21:55;14.10;;;8.40;;
29422;SDS011;16399;51.686;8.684;2022-08-20T02:24:59;11.83;;;8.13;;
29422;SDS011;16399;51.686;8.684;2022-08-20T02:28:03;12.35;;;7.90;;
29422;SDS011;16399;51.686;8.684;2022-08-20T02:31:07;14.43;;;8.48;;
29422;SDS011;16399;51.686;8.684;2022-08-20T02:34:09;15.68;;;9.13;;
29422;SDS011;16399;51.686;8.684;2022-08-20T02:37:14;12.40;;;8.15;;
29422;SDS011;16399;51.686;8.684;2022-08-20T02:40:18;14.20;;;9.65;;
29422;SDS011;16399;51.686;8.684;2022-08-20T02:43:23;15.18;;;8.98;;
29422;SDS011;16399;51.686;8.684;2022-08-20T02:46:26;16.10;;;9.08;;
29422;SDS011;16399;51.686;8.684;2022-08-20T02:49:28;16.32;;;9.80;;
29422;SDS011;16399;51.686;8.684;2022-08-20T02:52:31;15.03;;;8.98;;
29422;SDS011;16399;51.686;8.684;2022-08-20T02:55:33;13.85;;;9.23;;
29422;SDS011;16399;51.686;8.684;2022-08-20T02:58:36;18.55;;;9.50;;
29422;SDS011;16399;51.686;8.684;2022-08-20T03:01:39;13.60;;;9.35;;
29422;SDS011;16399;51.686;8.684;2022-08-20T03:04:42;13.60;;;9.10;;
29422;SDS011;16399;51.686;8.684;2022-08-20T03:07:46;17.67;;;10.45;;
29422;SDS011;16399;51.686;8.684;2022-08-20T03:10:52;17.35;;;9.48;;
29422;SDS011;16399;51.686;8.684;2022-08-20T03:13:54;14.20;;;9.70;;
29422;SDS011;16399;51.686;8.684;2022-08-20T03:16:57;15.83;;;8.93;;
29422;SDS011;16399;51.686;8.684;2022-08-20T03:19:59;16.27;;;9.65;;
29422;SDS011;16399;51.686;8.684;2022-08-20T03:23:02;13.40;;;9.48;;
29422;SDS011;16399;51.686;8.684;2022-08-20T03:26:06;16.25;;;10.05;;
29422;SDS011;16399;51.686;8.684;2022-08-20T03:32:12;21.20;;;11.00;;
29422;SDS011;16399;51.686;8.684;2022-08-20T03:35:15;18.62;;;5.58;;
29422;SDS011;16399;51.686;8.684;2022-08-20T03:38:18;8.13;;;3.50;;
29422;SDS011;16399;51.686;8.684;2022-08-20T03:41:23;7.80;;;4.45;;
29422;SDS011;16399;51.686;8.684;2022-08-20T03:44:25;7.22;;;3.12;;
29422;SDS011;16399;51.686;8.684;2022-08-20T03:47:27;5.20;;;2.40;;
29422;SDS011;16399;51.686;8.684;2022-08-20T03:50:30;4.47;;;1.60;;
29422;SDS011;16399;51.686;8.684;2022-08-20T03:53:32;4.08;;;1.90;;
29422;SDS011;16399;51.686;8.684;2022-08-20T03:56:35;6.60;;;2.47;;
29422;SDS011;16399;51.686;8.684;2022-08-20T03:59:37;6.80;;;2.80;;
29422;SDS011;16399;51.686;8.684;2022-08-20T04:02:39;4.87;;;2.40;;
29422;SDS011;16399;51.686;8.684;2022-08-20T04:05:42;4.62;;;2.22;;
29422;SDS011;16399;51.686;8.684;2022-08-20T04:08:44;5.97;;;2.02;;
29422;SDS011;16399;51.686;8.684;2022-08-20T04:11:47;5.83;;;1.80;;
29422;SDS011;16399;51.686;8.684;2022-08-20T04:14:50;3.98;;;1.77;;
29422;SDS011;16399;51.686;8.684;2022-08-20T04:17:52;3.55;;;1.90;;
29422;SDS011;16399;51.686;8.684;2022-08-20T04:20:54;5.62;;;2.17;;
29422;SDS011;16399;51.686;8.684;2022-08-20T04:23:57;5.60;;;2.10;;
29422;SDS011;16399;51.686;8.684;2022-08-20T04:26:59;4.30;;;2.02;;
29422;SDS011;16399;51.686;8.684;2022-08-20T04:30:03;4.75;;;1.80;;
29422;SDS011;16399;51.686;8.684;2022-08-20T04:33:07;5.80;;;2.30;;
29422;SDS011;16399;51.686;8.684;2022-08-20T04:36:10;4.37;;;1.85;;
29422;SDS011;16399;51.686;8.684;2022-08-20T04:39:14;4.78;;;2.02;;
29422;SDS011;16399;51.686;8.684;2022-08-20T04:42:17;3.87;;;1.80;;
29422;SDS011;16399;51.686;8.684;2022-08-20T04:45:19;4.67;;;1.90;;
29422;SDS011;16399;51.686;8.684;2022-08-20T04:48:22;4.15;;;1.62;;
29422;SDS011;16399;51.686;8.684;2022-08-20T04:51:28;3.25;;;1.92;;
29422;SDS011;16399;51.686;8.684;2022-08-20T04:54:30;5.20;;;2.00;;
29422;SDS011;16399;51.686;8.684;2022-08-20T04:57:33;5.60;;;2.30;;
29422;SDS011;16399;51.686;8.684;2022-08-20T05:00:37;4.00;;;1.87;;
29422;SDS011;16399;51.686;8.684;2022-08-20T05:03:40;4.17;;;2.05;;
29422;SDS011;16399;51.686;8.684;2022-08-20T05:06:42;5.05;;;2.52;;
29422;SDS011;16399;51.686;8.684;2022-08-20T05:09:45;6.40;;;2.80;;
29422;SDS011;16399;51.686;8.684;2022-08-20T05:12:47;5.83;;;2.67;;
29422;SDS011;16399;51.686;8.684;2022-08-20T05:15:50;4.58;;;2.90;;
29422;SDS011;16399;51.686;8.684;2022-08-20T05:18:52;4.37;;;2.47;;
29422;SDS011;16399;51.686;8.684;2022-08-20T05:21:55;5.65;;;3.27;;
29422;SDS011;16399;51.686;8.684;2022-08-20T05:24:57;8.70;;;5.35;;
29422;SDS011;16399;51.686;8.684;2022-08-20T05:28:02;9.27;;;5.67;;
29422;SDS011;16399;51.686;8.684;2022-08-20T05:31:08;11.12;;;6.03;;
29422;SDS011;16399;51.686;8.684;2022-08-20T05:34:11;11.65;;;6.72;;
29422;SDS011;16399;51.686;8.684;2022-08-20T05:37:13;12.15;;;7.47;;
29422;SDS011;16399;51.686;8.684;2022-08-20T05:40:16;11.60;;;7.60;;
29422;SDS011;16399;51.686;8.684;2022-08-20T05:43:19;11.40;;;7.50;;
29422;SDS011;16399;51.686;8.684;2022-08-20T05:46:22;14.03;;;7.70;;
29422;SDS011;16399;51.686;8.684;2022-08-20T05:49:24;10.05;;;6.35;;
29422;SDS011;16399;51.686;8.684;2022-08-20T05:52:27;9.05;;;6.30;;
29422;SDS011;16399;51.686;8.684;2022-08-20T05:55:29;9.60;;;6.10;;
29422;SDS011;16399;51.686;8.684;2022-08-20T05:58:32;11.00;;;7.28;;
29422;SDS011;16399;51.686;8.684;2022-08-20T06:01:35;10.80;;;7.60;;
29422;SDS011;16399;51.686;8.684;2022-08-20T06:04:38;11.25;;;7.83;;
29422;SDS011;16399;51.686;8.684;2022-08-20T06:07:41;11.55;;;7.58;;
29422;SDS011;16399;51.686;8.684;2022-08-20T06:10:43;11.57;;;7.40;;
29422;SDS011;16399;51.686;8.684;2022-08-20T06:13:46;10.43;;;7.58;;
29422;SDS011;16399;51.686;8.684;2022-08-20T06:16:49;9.98;;;7.30;;
29422;SDS011;16399;51.686;8.684;2022-08-20T06:19:51;10.72;;;7.00;;
29422;SDS011;16399;51.686;8.684;2022-08-20T06:22:54;11.30;;;5.85;;
29422;SDS011;16399;51.686;8.684;2022-08-20T06:25:56;11.12;;;6.80;;
29422;SDS011;16399;51.686;8.684;2022-08-20T06:28:59;9.35;;;6.37;;
29422;SDS011;16399;51.686;8.684;2022-08-20T06:32:02;11.73;;;6.20;;
29422;SDS011;16399;51.686;8.684;2022-08-20T06:35:05;8.48;;;5.45;;
29422;SDS011;16399;51.686;8.684;2022-08-20T06:41:12;7.47;;;4.92;;
29422;SDS011;16399;51.686;8.684;2022-08-20T06:44:14;8.73;;;4.97;;
29422;SDS011;16399;51.686;8.684;2022-08-20T06:47:17;8.10;;;4.80;;
29422;SDS011;16399;51.686;8.684;2022-08-20T06:50:24;7.10;;;4.53;;
29422;SDS011;16399;51.686;8.684;2022-08-20T06:53:26;9.05;;;4.80;;
29422;SDS011;16399;51.686;8.684;2022-08-20T06:56:29;9.40;;;5.40;;
29422;SDS011;16399;51.686;8.684;2022-08-20T06:59:31;7.80;;;4.87;;
29422;SDS011;16399;51.686;8.684;2022-08-20T07:02:33;6.72;;;4.50;;
29422;SDS011;16399;51.686;8.684;2022-08-20T07:05:38;8.13;;;5.33;;
29422;SDS011;16399;51.686;8.684;2022-08-20T07:08:43;9.28;;;5.67;;
29422;SDS011;16399;51.686;8.684;2022-08-20T07:11:45;9.53;;;5.58;;
29422;SDS011;16399;51.686;8.684;2022-08-20T07:14:48;8.78;;;5.58;;
29422;SDS011;16399;51.686;8.684;2022-08-20T07:17:52;10.05;;;5.53;;
29422;SDS011;16399;51.686;8.684;2022-08-20T07:20:56;8.18;;;5.20;;
29422;SDS011;16399;51.686;8.684;2022-08-20T07:23:59;8.83;;;6.15;;
29422;SDS011;16399;51.686;8.684;2022-08-20T07:27:01;11.18;;;7.05;;
29422;SDS011;16399;51.686;8.684;2022-08-20T07:30:05;11.20;;;6.80;;
29422;SDS011;16399;51.686;8.684;2022-08-20T07:33:26;11.53;;;5.83;;
29422;SDS011;16399;51.686;8.684;2022-08-20T07:36:30;8.13;;;6.03;;
29422;SDS011;16399;51.686;8.684;2022-08-20T07:39:33;11.55;;;5.92;;
29422;SDS011;16399;51.686;8.684;2022-08-20T07:42:35;8.88;;;5.72;;
29422;SDS011;16399;51.686;8.684;2022-08-20T07:45:38;9.18;;;6.47;;
29422;SDS011;16399;51.686;8.684;2022-08-20T07:48:41;12.13;;;6.72;;
29422;SDS011;16399;51.686;8.684;2022-08-20T07:51:46;10.63;;;7.17;;
29422;SDS011;16399;51.686;8.684;2022-08-20T07:54:48;11.85;;;7.25;;
29422;SDS011;16399;51.686;8.684;2022-08-20T07:57:50;9.65;;;6.62;;
29422;SDS011;16399;51.686;8.684;2022-08-20T08:00:53;10.50;;;7.10;;
29422;SDS011;16399;51.686;8.684;2022-08-20T08:03:55;10.72;;;7.03;;
29422;SDS011;16399;51.686;8.684;2022-08-20T08:07:00;9.88;;;6.65;;
29422;SDS011;16399;51.686;8.684;2022-08-20T08:10:02;8.38;;;6.03;;
29422;SDS011;16399;51.686;8.684;2022-08-20T08:13:08;7.10;;;4.97;;
29422;SDS011;16399;51.686;8.684;2022-08-20T08:16:12;7.87;;;4.90;;
29422;SDS011;16399;51.686;8.684;2022-08-20T08:19:15;8.58;;;5.12;;
29422;SDS011;16399;51.686;8.684;2022-08-20T08:22:19;6.97;;;5.30;;
29422;SDS011;16399;51.686;8.684;2022-08-20T08:25:21;10.40;;;5.22;;
29422;SDS011;16399;51.686;8.684;2022-08-20T08:28:23;7.95;;;5.12;;
29422;SDS011;16399;51.686;8.684;2022-08-20T08:31:27;8.43;;;5.95;;
29422;SDS011;16399;51.686;8.684;2022-08-20T08:34:30;7.42;;;5.20;;
29422;SDS011;16399;51.686;8.684;2022-08-20T08:37:34;7.47;;;5.05;;
29422;SDS011;16399;51.686;8.684;2022-08-20T08:40:37;8.38;;;5.15;;
29422;SDS011;16399;51.686;8.684;2022-08-20T08:43:41;7.80;;;5.63;;
29422;SDS011;16399;51.686;8.684;2022-08-20T08:46:46;9.38;;;5.58;;
29422;SDS011;16399;51.686;8.684;2022-08-20T08:49:50;7.78;;;5.37;;
29422;SDS011;16399;51.686;8.684;2022-08-20T08:52:54;8.65;;;5.35;;
29422;SDS011;16399;51.686;8.684;2022-08-20T08:55:59;8.03;;;5.33;;
29422;SDS011;16399;51.686;8.684;2022-08-20T08:59:04;7.75;;;4.95;;
29422;SDS011;16399;51.686;8.684;2022-08-20T09:02:08;7.20;;;4.75;;
29422;SDS011;16399;51.686;8.684;2022-08-20T09:05:14;6.50;;;4.67;;
29422;SDS011;16399;51.686;8.684;2022-08-20T09:08:22;7.28;;;5.05;;
29422;SDS011;16399;51.686;8.684;2022-08-20T09:11:27;6.28;;;4.30;;
29422;SDS011;16399;51.686;8.684;2022-08-20T09:14:30;5.65;;;3.20;;
29422;SDS011;16399;51.686;8.684;2022-08-20T09:17:33;6.15;;;3.27;;
29422;SDS011;16399;51.686;8.684;2022-08-20T09:20:35;4.75;;;3.25;;
29422;SDS011;16399;51.686;8.684;2022-08-20T09:23:38;5.30;;;3.42;;
29422;SDS011;16399;51.686;8.684;2022-08-20T09:26:40;6.55;;;3.67;;
29422;SDS011;16399;51.686;8.684;2022-08-20T09:29:42;4.37;;;2.95;;
29422;SDS011;16399;51.686;8.684;2022-08-20T09:32:45;3.27;;;1.95;;
29422;SDS011;16399;51.686;8.684;2022-08-20T09:35:48;2.95;;;1.40;;
29422;SDS011;16399;51.686;8.684;2022-08-20T09:38:50;2.98;;;1.80;;
29422;SDS011;16399;51.686;8.684;2022-08-20T09:41:52;1.62;;;1.05;;
29422;SDS011;16399;51.686;8.684;2022-08-20T09:44:55;2.05;;;1.27;;
29422;SDS011;16399;51.686;8.684;2022-08-20T09:47:58;2.15;;;1.10;;
29422;SDS011;16399;51.686;8.684;2022-08-20T09:51:00;3.50;;;2.33;;
29422;SDS011;16399;51.686;8.684;2022-08-20T09:54:03;3.55;;;2.02;;
29422;SDS011;16399;51.686;8.684;2022-08-20T09:57:06;3.70;;;2.02;;
29422;SDS011;16399;51.686;8.684;2022-08-20T10:00:10;5.22;;;2.87;;
29422;SDS011;16399;51.686;8.684;2022-08-20T10:03:13;4.10;;;2.50;;
29422;SDS011;16399;51.686;8.684;2022-08-20T10:06:16;3.12;;;1.60;;
29422;SDS011;16399;51.686;8.684;2022-08-20T10:09:19;3.45;;;1.30;;
29422;SDS011;16399;51.686;8.684;2022-08-20T10:12:22;3.27;;;1.25;;
29422;SDS011;16399;51.686;8.684;2022-08-20T10:15:24;2.25;;;1.30;;
29422;SDS011;16399;51.686;8.684;2022-08-20T10:18:26;1.65;;;1.00;;
29422;SDS011;16399;51.686;8.684;2022-08-20T10:21:29;2.75;;;1.70;;
29422;SDS011;16399;51.686;8.684;2022-08-20T10:24:31;4.53;;;2.80;;
29422;SDS011;16399;51.686;8.684;2022-08-20T10:27:34;4.78;;;2.47;;
29422;SDS011;16399;51.686;8.684;2022-08-20T10:30:37;4.60;;;2.83;;
29422;SDS011;16399;51.686;8.684;2022-08-20T10:33:39;4.53;;;2.30;;
29422;SDS011;16399;51.686;8.684;2022-08-20T10:36:42;5.60;;;2.77;;
29422;SDS011;16399;51.686;8.684;2022-08-20T10:39:46;4.47;;;3.25;;
29422;SDS011;16399;51.686;8.684;2022-08-20T10:42:48;5.95;;;3.35;;
29422;SDS011;16399;51.686;8.684;2022-08-20T10:45:51;6.33;;;3.67;;
29422;SDS011;16399;51.686;8.684;2022-08-20T10:48:53;5.65;;;3.37;;
29422;SDS011;16399;51.686;8.684;2022-08-20T10:51:55;6.53;;;4.00;;
29422;SDS011;16399;51.686;8.684;2022-08-20T10:54:58;7.37;;;4.17;;
29422;SDS011;16399;51.686;8.684;2022-08-20T10:58:00;6.75;;;4.72;;
29422;SDS011;16399;51.686;8.684;2022-08-20T11:01:04;7.30;;;4.83;;
29422;SDS011;16399;51.686;8.684;2022-08-20T11:04:06;5.95;;;4.00;;
29422;SDS011;16399;51.686;8.684;2022-08-20T11:07:09;7.30;;;4.65;;
29422;SDS011;16399;51.686;8.684;2022-08-20T11:10:16;5.80;;;4.05;;
29422;SDS011;16399;51.686;8.684;2022-08-20T11:13:19;8.23;;;4.12;;
29422;SDS011;16399;51.686;8.684;2022-08-20T11:16:22;6.20;;;4.17;;
29422;SDS011;16399;51.686;8.684;2022-08-20T11:19:24;7.00;;;4.72;;
29422;SDS011;16399;51.686;8.684;2022-08-20T11:22:27;6.72;;;4.03;;
29422;SDS011;16399;51.686;8.684;2022-08-20T11:25:29;6.40;;;3.95;;
29422;SDS011;16399;51.686;8.684;2022-08-20T11:28:31;6.35;;;3.35;;
29422;SDS011;16399;51.686;8.684;2022-08-20T11:31:34;5.35;;;3.47;;
29422;SDS011;16399;51.686;8.684;2022-08-20T11:34:36;4.65;;;3.25;;
29422;SDS011;16399;51.686;8.684;2022-08-20T11:37:38;5.65;;;3.65;;
29422;SDS011;16399;51.686;8.684;2022-08-20T11:40:41;8.33;;;3.40;;
29422;SDS011;16399;51.686;8.684;2022-08-20T11:43:43;5.65;;;3.40;;
29422;SDS011;16399;51.686;8.684;2022-08-20T11:46:45;4.95;;;3.17;;
29422;SDS011;16399;51.686;8.684;2022-08-20T11:49:54;5.78;;;4.05;;
29422;SDS011;16399;51.686;8.684;2022-08-20T11:52:59;6.35;;;4.50;;
29422;SDS011;16399;51.686;8.684;2022-08-20T11:56:01;6.28;;;4.40;;
29422;SDS011;16399;51.686;8.684;2022-08-20T11:59:03;8.75;;;5.00;;
29422;SDS011;16399;51.686;8.684;2022-08-20T12:02:06;7.62;;;4.42;;
29422;SDS011;16399;51.686;8.684;2022-08-20T12:05:09;6.92;;;4.50;;
29422;SDS011;16399;51.686;8.684;2022-08-20T12:08:12;9.77;;;5.00;;
29422;SDS011;16399;51.686;8.684;2022-08-20T12:11:16;6.28;;;4.37;;
29422;SDS011;16399;51.686;8.684;2022-08-20T12:14:18;7.05;;;4.55;;
29422;SDS011;16399;51.686;8.684;2022-08-20T12:17:22;5.33;;;4.12;;
29422;SDS011;16399;51.686;8.684;2022-08-20T12:20:26;5.67;;;4.20;;
29422;SDS011;16399;51.686;8.684;2022-08-20T12:23:28;5.35;;;4.25;;
29422;SDS011;16399;51.686;8.684;2022-08-20T12:26:30;6.55;;;4.70;;
29422;SDS011;16399;51.686;8.684;2022-08-20T12:29:33;6.15;;;4.72;;
29422;SDS011;16399;51.686;8.684;2022-08-20T12:32:35;6.17;;;4.08;;
29422;SDS011;16399;51.686;8.684;2022-08-20T12:35:38;7.12;;;5.10;;
29422;SDS011;16399;51.686;8.684;2022-08-20T12:38:40;7.33;;;4.70;;
29422;SDS011;16399;51.686;8.684;2022-08-20T12:41:43;7.95;;;4.10;;
29422;SDS011;16399;51.686;8.684;2022-08-20T12:44:45;7.72;;;4.80;;
29422;SDS011;16399;51.686;8.684;2022-08-20T12:47:48;6.67;;;4.92;;
29422;SDS011;16399;51.686;8.684;2022-08-20T12:50:50;7.58;;;5.33;;
29422;SDS011;16399;51.686;8.684;2022-08-20T12:53:52;6.40;;;4.22;;
29422;SDS011;16399;51.686;8.684;2022-08-20T12:56:55;8.20;;;5.45;;
29422;SDS011;16399;51.686;8.684;2022-08-20T12:59:59;7.03;;;5.30;;
29422;SDS011;16399;51.686;8.684;2022-08-20T13:03:04;6.47;;;4.97;;
29422;SDS011;16399;51.686;8.684;2022-08-20T13:06:11;6.25;;;4.78;;
29422;SDS011;16399;51.686;8.684;2022-08-20T13:09:13;7.45;;;4.80;;
29422;SDS011;16399;51.686;8.684;2022-08-20T13:12:17;8.60;;;5.17;;
29422;SDS011;16399;51.686;8.684;2022-08-20T13:15:20;7.28;;;4.72;;
29422;SDS011;16399;51.686;8.684;2022-08-20T13:18:22;6.50;;;4.72;;
29422;SDS011;16399;51.686;8.684;2022-08-20T13:21:25;6.25;;;4.60;;
29422;SDS011;16399;51.686;8.684;2022-08-20T13:24:27;7.75;;;4.70;;
29422;SDS011;16399;51.686;8.684;2022-08-20T13:27:31;5.50;;;3.83;;
29422;SDS011;16399;51.686;8.684;2022-08-20T13:30:35;7.40;;;5.03;;
29422;SDS011;16399;51.686;8.684;2022-08-20T13:33:38;5.60;;;4.27;;
29422;SDS011;16399;51.686;8.684;2022-08-20T13:36:40;6.22;;;4.20;;
29422;SDS011;16399;51.686;8.684;2022-08-20T13:39:43;6.62;;;4.40;;
29422;SDS011;16399;51.686;8.684;2022-08-20T13:42:45;7.85;;;4.95;;
29422;SDS011;16399;51.686;8.684;2022-08-20T13:45:47;7.30;;;4.65;;
29422;SDS011;16399;51.686;8.684;2022-08-20T13:48:50;13.25;;;4.53;;
29422;SDS011;16399;51.686;8.684;2022-08-20T13:51:52;6.05;;;4.35;;
29422;SDS011;16399;51.686;8.684;2022-08-20T13:54:54;6.85;;;4.58;;
29422;SDS011;16399;51.686;8.684;2022-08-20T13:57:56;6.05;;;3.95;;
29422;SDS011;16399;51.686;8.684;2022-08-20T14:01:00;9.08;;;5.10;;
29422;SDS011;16399;51.686;8.684;2022-08-20T14:04:03;7.25;;;4.37;;
29422;SDS011;16399;51.686;8.684;2022-08-20T14:07:13;5.15;;;3.35;;
29422;SDS011;16399;51.686;8.684;2022-08-20T14:10:22;5.75;;;4.00;;
29422;SDS011;16399;51.686;8.684;2022-08-20T14:13:24;5.83;;;3.58;;
29422;SDS011;16399;51.686;8.684;2022-08-20T14:16:27;7.77;;;4.20;;
29422;SDS011;16399;51.686;8.684;2022-08-20T14:19:29;7.20;;;4.30;;
29422;SDS011;16399;51.686;8.684;2022-08-20T14:22:32;7.60;;;4.40;;
29422;SDS011;16399;51.686;8.684;2022-08-20T14:25:34;7.30;;;3.58;;
29422;SDS011;16399;51.686;8.684;2022-08-20T14:28:37;6.17;;;3.33;;
29422;SDS011;16399;51.686;8.684;2022-08-20T14:31:39;5.72;;;3.92;;
29422;SDS011;16399;51.686;8.684;2022-08-20T14:34:41;6.10;;;3.60;;
29422;SDS011;16399;51.686;8.684;2022-08-20T14:37:48;12.18;;;7.62;;
29422;SDS011;16399;51.686;8.684;2022-08-20T14:40:52;23.52;;;15.95;;
29422;SDS011;16399;51.686;8.684;2022-08-20T14:43:55;5.60;;;4.03;;
29422;SDS011;16399;51.686;8.684;2022-08-20T14:46:57;6.47;;;3.80;;
29422;SDS011;16399;51.686;8.684;2022-08-20T14:50:07;8.50;;;3.90;;
29422;SDS011;16399;51.686;8.684;2022-08-20T14:53:10;5.42;;;3.75;;
29422;SDS011;16399;51.686;8.684;2022-08-20T14:56:13;6.12;;;4.33;;
29422;SDS011;16399;51.686;8.684;2022-08-20T14:59:15;8.70;;;4.00;;
29422;SDS011;16399;51.686;8.684;2022-08-20T15:02:17;7.10;;;4.00;;
29422;SDS011;16399;51.686;8.684;2022-08-20T15:05:20;7.28;;;3.40;;
29422;SDS011;16399;51.686;8.684;2022-08-20T15:08:22;5.60;;;3.30;;
29422;SDS011;16399;51.686;8.684;2022-08-20T15:11:24;5.35;;;3.58;;
29422;SDS011;16399;51.686;8.684;2022-08-20T15:14:27;7.00;;;3.50;;
29422;SDS011;16399;51.686;8.684;2022-08-20T15:17:29;8.28;;;4.80;;
29422;SDS011;16399;51.686;8.684;2022-08-20T15:20:33;6.03;;;3.52;;
29422;SDS011;16399;51.686;8.684;2022-08-20T15:23:36;9.15;;;3.92;;
29422;SDS011;16399;51.686;8.684;2022-08-20T15:26:39;7.10;;;3.58;;
29422;SDS011;16399;51.686;8.684;2022-08-20T15:29:41;8.18;;;4.47;;
29422;SDS011;16399;51.686;8.684;2022-08-20T15:32:43;7.40;;;3.75;;
29422;SDS011;16399;51.686;8.684;2022-08-20T15:35:46;18.67;;;12.78;;
29422;SDS011;16399;51.686;8.684;2022-08-20T15:38:48;11.05;;;5.15;;
29422;SDS011;16399;51.686;8.684;2022-08-20T15:41:51;9.18;;;5.17;;
29422;SDS011;16399;51.686;8.684;2022-08-20T15:44:53;8.73;;;5.55;;
29422;SDS011;16399;51.686;8.684;2022-08-20T15:48:00;7.50;;;3.65;;
29422;SDS011;16399;51.686;8.684;2022-08-20T15:51:16;6.70;;;3.42;;
29422;SDS011;16399;51.686;8.684;2022-08-20T15:54:35;6.62;;;2.58;;
29422;SDS011;16399;51.686;8.684;2022-08-20T15:57:52;8.53;;;4.10;;
29422;SDS011;16399;51.686;8.684;2022-08-20T16:01:00;5.97;;;2.55;;
29422;SDS011;16399;51.686;8.684;2022-08-20T16:04:08;7.20;;;2.60;;
29422;SDS011;16399;51.686;8.684;2022-08-20T16:10:45;6.17;;;2.55;;
29422;SDS011;16399;51.686;8.684;2022-08-20T16:13:47;8.18;;;2.85;;
29422;SDS011;16399;51.686;8.684;2022-08-20T16:16:56;8.65;;;3.42;;
29422;SDS011;16399;51.686;8.684;2022-08-20T16:23:24;11.10;;;6.72;;
29422;SDS011;16399;51.686;8.684;2022-08-20T16:30:07;8.73;;;3.45;;
29422;SDS011;16399;51.686;8.684;2022-08-20T16:33:13;6.62;;;2.65;;
29422;SDS011;16399;51.686;8.684;2022-08-20T16:36:36;7.58;;;2.40;;
29422;SDS011;16399;51.686;8.684;2022-08-20T16:39:52;8.78;;;2.80;;
29422;SDS011;16399;51.686;8.684;2022-08-20T16:43:01;8.25;;;2.67;;
29422;SDS011;16399;51.686;8.684;2022-08-20T16:49:19;5.95;;;2.60;;
29422;SDS011;16399;51.686;8.684;2022-08-20T16:52:23;11.45;;;3.20;;
29422;SDS011;16399;51.686;8.684;2022-08-20T16:55:25;4.78;;;2.50;;
29422;SDS011;16399;51.686;8.684;2022-08-20T16:58:27;9.13;;;2.62;;
29422;SDS011;16399;51.686;8.684;2022-08-20T17:01:29;5.55;;;2.22;;
29422;SDS011;16399;51.686;8.684;2022-08-20T17:04:32;6.17;;;3.02;;
29422;SDS011;16399;51.686;8.684;2022-08-20T17:07:41;7.40;;;2.70;;
29422;SDS011;16399;51.686;8.684;2022-08-20T17:10:57;8.50;;;2.85;;
29422;SDS011;16399;51.686;8.684;2022-08-20T17:14:02;6.25;;;2.77;;
29422;SDS011;16399;51.686;8.684;2022-08-20T17:17:16;7.67;;;3.17;;
29422;SDS011;16399;51.686;8.684;2022-08-20T17:20:13;5.62;;;3.10;;
29422;SDS011;16399;51.686;8.684;2022-08-20T17:23:18;6.40;;;2.80;;
29422;SDS011;16399;51.686;8.684;2022-08-20T17:26:28;6.92;;;3.60;;
29422;SDS011;16399;51.686;8.684;2022-08-20T17:29:51;7.50;;;2.60;;
29422;SDS011;16399;51.686;8.684;2022-08-20T17:32:57;8.53;;;3.05;;
29422;SDS011;16399;51.686;8.684;2022-08-20T17:36:06;6.20;;;2.95;;
29422;SDS011;16399;51.686;8.684;2022-08-20T17:39:06;6.10;;;2.87;;
29422;SDS011;16399;51.686;8.684;2022-08-20T17:42:14;7.22;;;3.05;;
29422;SDS011;16399;51.686;8.684;2022-08-20T17:45:25;10.18;;;3.50;;
29422;SDS011;16399;51.686;8.684;2022-08-20T17:48:37;9.33;;;2.55;;
29422;SDS011;16399;51.686;8.684;2022-08-20T17:51:49;7.87;;;2.93;;
29422;SDS011;16399;51.686;8.684;2022-08-20T17:54:49;7.35;;;3.52;;
29422;SDS011;16399;51.686;8.684;2022-08-20T17:57:53;5.40;;;2.75;;
29422;SDS011;16399;51.686;8.684;2022-08-20T18:00:57;8.10;;;2.80;;
29422;SDS011;16399;51.686;8.684;2022-08-20T18:04:00;7.25;;;3.40;;
29422;SDS011;16399;51.686;8.684;2022-08-20T18:10:12;10.60;;;3.98;;
29422;SDS011;16399;51.686;8.684;2022-08-20T18:13:17;6.85;;;3.50;;
29422;SDS011;16399;51.686;8.684;2022-08-20T18:16:28;6.78;;;2.95;;
29422;SDS011;16399;51.686;8.684;2022-08-20T18:19:36;6.83;;;2.60;;
29422;SDS011;16399;51.686;8.684;2022-08-20T18:22:46;6.12;;;2.60;;
29422;SDS011;16399;51.686;8.684;2022-08-20T18:26:02;5.25;;;2.47;;
29422;SDS011;16399;51.686;8.684;2022-08-20T18:29:09;4.97;;;2.30;;
29422;SDS011;16399;51.686;8.684;2022-08-20T18:32:59;8.15;;;2.25;;
29422;SDS011;16399;51.686;8.684;2022-08-20T18:35:34;6.72;;;2.35;;
29422;SDS011;16399;51.686;8.684;2022-08-20T18:38:38;4.50;;;2.02;;
29422;SDS011;16399;51.686;8.684;2022-08-20T18:41:53;7.60;;;2.50;;
29422;SDS011;16399;51.686;8.684;2022-08-20T18:45:03;6.22;;;2.02;;
29422;SDS011;16399;51.686;8.684;2022-08-20T18:48:07;9.58;;;4.08;;
29422;SDS011;16399;51.686;8.684;2022-08-20T18:51:11;5.80;;;3.17;;
29422;SDS011;16399;51.686;8.684;2022-08-20T18:54:23;50.15;;;27.20;;
29422;SDS011;16399;51.686;8.684;2022-08-20T18:57:29;49.10;;;23.47;;